sensor_id;sensor_type;location;lat;lon;timestamp;P1;durP1;ratioP1;P2;durP2;ratioP2
13309;SDS011;6723;48.256;16.402;2023-03-03T00:02:11;24.80;;;15.43;;
13309;SDS011;6723;48.256;16.402;2023-03-03T00:04:37;23.87;;;16.00;;
13309;SDS011;6723;48.256;16.402;2023-03-03T00:07:04;25.20;;;15.77;;
13309;SDS011;6723;48.256;16.402;2023-03-03T00:09:29;23.50;;;15.63;;
13309;SDS011;6723;48.256;16.402;2023-03-03T00:11:56;23.50;;;15.10;;
13309;SDS011;6723;48.256;16.402;2023-03-03T00:14:28;23.47;;;15.77;;
13309;SDS011;6723;48.256;16.402;2023-03-03T00:16:56;24.77;;;15.73;;
13309;SDS011;6723;48.256;16.402;2023-03-03T00:19:25;22.77;;;15.03;;
13309;SDS011;6723;48.256;16.402;2023-03-03T00:21:51;21.93;;;14.50;;
13309;SDS011;6723;48.256;16.402;2023-03-03T00:26:49;21.87;;;14.90;;
13309;SDS011;6723;48.256;16.402;2023-03-03T00:29:33;22.73;;;14.70;;
13309;SDS011;6723;48.256;16.402;2023-03-03T00:32:15;26.00;;;14.37;;
13309;SDS011;6723;48.256;16.402;2023-03-03T00:34:46;23.93;;;14.37;;
13309;SDS011;6723;48.256;16.402;2023-03-03T00:37:25;22.60;;;14.83;;
13309;SDS011;6723;48.256;16.402;2023-03-03T00:39:57;25.20;;;14.70;;
13309;SDS011;6723;48.256;16.402;2023-03-03T00:42:37;20.97;;;14.00;;
13309;SDS011;6723;48.256;16.402;2023-03-03T00:45:15;20.93;;;14.73;;
13309;SDS011;6723;48.256;16.402;2023-03-03T00:47:48;25.80;;;15.30;;
13309;SDS011;6723;48.256;16.402;2023-03-03T00:50:36;24.53;;;15.13;;
13309;SDS011;6723;48.256;16.402;2023-03-03T00:53:05;22.40;;;14.03;;
13309;SDS011;6723;48.256;16.402;2023-03-03T00:55:35;26.67;;;14.40;;
13309;SDS011;6723;48.256;16.402;2023-03-03T00:58:01;23.93;;;15.33;;
13309;SDS011;6723;48.256;16.402;2023-03-03T01:00:27;24.87;;;14.80;;
13309;SDS011;6723;48.256;16.402;2023-03-03T01:02:53;25.87;;;15.67;;
13309;SDS011;6723;48.256;16.402;2023-03-03T01:05:19;24.83;;;15.83;;
13309;SDS011;6723;48.256;16.402;2023-03-03T01:07:45;21.77;;;15.13;;
13309;SDS011;6723;48.256;16.402;2023-03-03T01:10:11;25.13;;;15.27;;
13309;SDS011;6723;48.256;16.402;2023-03-03T01:12:37;21.83;;;14.83;;
13309;SDS011;6723;48.256;16.402;2023-03-03T01:15:07;23.33;;;14.67;;
13309;SDS011;6723;48.256;16.402;2023-03-03T01:17:37;21.23;;;14.30;;
13309;SDS011;6723;48.256;16.402;2023-03-03T01:20:04;21.93;;;13.97;;
13309;SDS011;6723;48.256;16.402;2023-03-03T01:22:31;21.83;;;14.13;;
13309;SDS011;6723;48.256;16.402;2023-03-03T01:24:58;21.70;;;13.30;;
13309;SDS011;6723;48.256;16.402;2023-03-03T01:27:23;21.60;;;13.43;;
13309;SDS011;6723;48.256;16.402;2023-03-03T01:29:49;21.67;;;14.23;;
13309;SDS011;6723;48.256;16.402;2023-03-03T01:32:15;22.67;;;13.90;;
13309;SDS011;6723;48.256;16.402;2023-03-03T01:34:41;24.03;;;13.67;;
13309;SDS011;6723;48.256;16.402;2023-03-03T01:37:07;22.10;;;13.40;;
13309;SDS011;6723;48.256;16.402;2023-03-03T01:39:32;20.33;;;13.67;;
13309;SDS011;6723;48.256;16.402;2023-03-03T01:41:58;22.00;;;13.17;;
13309;SDS011;6723;48.256;16.402;2023-03-03T01:44:24;24.47;;;13.07;;
13309;SDS011;6723;48.256;16.402;2023-03-03T01:46:52;21.87;;;13.40;;
13309;SDS011;6723;48.256;16.402;2023-03-03T01:49:25;20.10;;;13.33;;
13309;SDS011;6723;48.256;16.402;2023-03-03T01:52:01;22.80;;;13.23;;
13309;SDS011;6723;48.256;16.402;2023-03-03T01:54:35;20.20;;;12.87;;
13309;SDS011;6723;48.256;16.402;2023-03-03T01:57:11;22.10;;;13.07;;
13309;SDS011;6723;48.256;16.402;2023-03-03T01:59:41;24.23;;;14.20;;
13309;SDS011;6723;48.256;16.402;2023-03-03T02:02:12;25.23;;;13.73;;
13309;SDS011;6723;48.256;16.402;2023-03-03T02:04:41;22.63;;;13.53;;
13309;SDS011;6723;48.256;16.402;2023-03-03T02:07:10;24.27;;;13.07;;
13309;SDS011;6723;48.256;16.402;2023-03-03T02:09:41;25.80;;;13.40;;
13309;SDS011;6723;48.256;16.402;2023-03-03T02:12:42;22.20;;;13.20;;
13309;SDS011;6723;48.256;16.402;2023-03-03T02:15:18;23.60;;;13.33;;
13309;SDS011;6723;48.256;16.402;2023-03-03T02:17:44;22.50;;;13.70;;
13309;SDS011;6723;48.256;16.402;2023-03-03T02:22:56;21.73;;;13.30;;
13309;SDS011;6723;48.256;16.402;2023-03-03T02:25:47;21.53;;;13.37;;
13309;SDS011;6723;48.256;16.402;2023-03-03T02:28:08;20.77;;;12.97;;
13309;SDS011;6723;48.256;16.402;2023-03-03T02:30:38;20.20;;;13.87;;
13309;SDS011;6723;48.256;16.402;2023-03-03T02:33:04;20.43;;;12.73;;
13309;SDS011;6723;48.256;16.402;2023-03-03T02:35:32;21.43;;;13.43;;
13309;SDS011;6723;48.256;16.402;2023-03-03T02:38:06;20.17;;;13.23;;
13309;SDS011;6723;48.256;16.402;2023-03-03T02:40:44;22.33;;;13.70;;
13309;SDS011;6723;48.256;16.402;2023-03-03T02:43:23;22.27;;;13.83;;
13309;SDS011;6723;48.256;16.402;2023-03-03T02:45:55;23.50;;;13.70;;
13309;SDS011;6723;48.256;16.402;2023-03-03T02:48:20;21.67;;;13.50;;
13309;SDS011;6723;48.256;16.402;2023-03-03T02:50:46;22.27;;;13.63;;
13309;SDS011;6723;48.256;16.402;2023-03-03T02:53:12;23.70;;;14.00;;
13309;SDS011;6723;48.256;16.402;2023-03-03T02:55:38;21.50;;;13.97;;
13309;SDS011;6723;48.256;16.402;2023-03-03T02:58:03;23.73;;;14.73;;
13309;SDS011;6723;48.256;16.402;2023-03-03T03:00:29;26.07;;;14.93;;
13309;SDS011;6723;48.256;16.402;2023-03-03T03:02:56;23.10;;;14.80;;
13309;SDS011;6723;48.256;16.402;2023-03-03T03:05:23;21.40;;;13.73;;
13309;SDS011;6723;48.256;16.402;2023-03-03T03:07:48;22.10;;;14.20;;
13309;SDS011;6723;48.256;16.402;2023-03-03T03:10:14;27.03;;;15.53;;
13309;SDS011;6723;48.256;16.402;2023-03-03T03:12:40;27.20;;;15.63;;
13309;SDS011;6723;48.256;16.402;2023-03-03T03:15:06;23.63;;;15.23;;
13309;SDS011;6723;48.256;16.402;2023-03-03T03:17:35;25.03;;;15.47;;
13309;SDS011;6723;48.256;16.402;2023-03-03T03:20:02;26.07;;;15.67;;
13309;SDS011;6723;48.256;16.402;2023-03-03T03:22:28;25.80;;;15.67;;
13309;SDS011;6723;48.256;16.402;2023-03-03T03:24:54;25.23;;;16.43;;
13309;SDS011;6723;48.256;16.402;2023-03-03T03:27:19;27.67;;;16.03;;
13309;SDS011;6723;48.256;16.402;2023-03-03T03:29:47;26.57;;;16.40;;
13309;SDS011;6723;48.256;16.402;2023-03-03T03:32:13;28.17;;;17.57;;
13309;SDS011;6723;48.256;16.402;2023-03-03T03:34:39;27.93;;;17.07;;
13309;SDS011;6723;48.256;16.402;2023-03-03T03:37:04;25.87;;;16.63;;
13309;SDS011;6723;48.256;16.402;2023-03-03T03:39:30;28.77;;;17.30;;
13309;SDS011;6723;48.256;16.402;2023-03-03T03:41:56;27.30;;;17.33;;
13309;SDS011;6723;48.256;16.402;2023-03-03T03:44:22;30.77;;;17.10;;
13309;SDS011;6723;48.256;16.402;2023-03-03T03:46:49;23.33;;;16.10;;
13309;SDS011;6723;48.256;16.402;2023-03-03T03:49:15;25.00;;;16.70;;
13309;SDS011;6723;48.256;16.402;2023-03-03T03:51:40;26.20;;;16.30;;
13309;SDS011;6723;48.256;16.402;2023-03-03T03:54:06;27.40;;;17.20;;
13309;SDS011;6723;48.256;16.402;2023-03-03T03:56:32;25.17;;;16.70;;
13309;SDS011;6723;48.256;16.402;2023-03-03T03:58:58;25.20;;;16.50;;
13309;SDS011;6723;48.256;16.402;2023-03-03T04:01:25;25.17;;;16.50;;
13309;SDS011;6723;48.256;16.402;2023-03-03T04:03:51;27.00;;;16.57;;
13309;SDS011;6723;48.256;16.402;2023-03-03T04:06:16;24.67;;;16.97;;
13309;SDS011;6723;48.256;16.402;2023-03-03T04:08:42;27.17;;;17.43;;
13309;SDS011;6723;48.256;16.402;2023-03-03T04:11:08;28.03;;;18.03;;
13309;SDS011;6723;48.256;16.402;2023-03-03T04:13:34;32.27;;;18.93;;
13309;SDS011;6723;48.256;16.402;2023-03-03T04:16:00;30.30;;;18.77;;
13309;SDS011;6723;48.256;16.402;2023-03-03T04:18:26;30.50;;;18.47;;
13309;SDS011;6723;48.256;16.402;2023-03-03T04:20:52;29.73;;;18.20;;
13309;SDS011;6723;48.256;16.402;2023-03-03T04:23:19;28.17;;;18.50;;
13309;SDS011;6723;48.256;16.402;2023-03-03T04:25:46;29.97;;;19.23;;
13309;SDS011;6723;48.256;16.402;2023-03-03T04:28:13;31.77;;;19.73;;
13309;SDS011;6723;48.256;16.402;2023-03-03T04:30:39;32.27;;;20.50;;
13309;SDS011;6723;48.256;16.402;2023-03-03T04:33:05;37.03;;;22.10;;
13309;SDS011;6723;48.256;16.402;2023-03-03T04:38:07;33.10;;;20.60;;
13309;SDS011;6723;48.256;16.402;2023-03-03T04:40:33;33.00;;;21.47;;
13309;SDS011;6723;48.256;16.402;2023-03-03T04:42:59;35.10;;;22.10;;
13309;SDS011;6723;48.256;16.402;2023-03-03T04:45:25;33.50;;;21.33;;
13309;SDS011;6723;48.256;16.402;2023-03-03T04:47:50;32.77;;;21.20;;
13309;SDS011;6723;48.256;16.402;2023-03-03T04:50:16;34.77;;;22.23;;
13309;SDS011;6723;48.256;16.402;2023-03-03T04:52:42;35.63;;;22.37;;
13309;SDS011;6723;48.256;16.402;2023-03-03T04:55:07;40.80;;;23.90;;
13309;SDS011;6723;48.256;16.402;2023-03-03T04:57:34;37.57;;;23.73;;
13309;SDS011;6723;48.256;16.402;2023-03-03T04:59:59;35.97;;;23.70;;
13309;SDS011;6723;48.256;16.402;2023-03-03T05:02:25;39.33;;;24.93;;
13309;SDS011;6723;48.256;16.402;2023-03-03T05:04:51;38.00;;;24.17;;
13309;SDS011;6723;48.256;16.402;2023-03-03T05:07:16;42.30;;;24.70;;
13309;SDS011;6723;48.256;16.402;2023-03-03T05:09:44;36.83;;;23.63;;
13309;SDS011;6723;48.256;16.402;2023-03-03T05:12:09;39.90;;;26.07;;
13309;SDS011;6723;48.256;16.402;2023-03-03T05:14:35;37.40;;;23.93;;
13309;SDS011;6723;48.256;16.402;2023-03-03T05:17:02;40.17;;;24.47;;
13309;SDS011;6723;48.256;16.402;2023-03-03T05:19:29;39.20;;;23.50;;
13309;SDS011;6723;48.256;16.402;2023-03-03T05:21:56;41.50;;;24.80;;
13309;SDS011;6723;48.256;16.402;2023-03-03T05:24:22;43.03;;;25.93;;
13309;SDS011;6723;48.256;16.402;2023-03-03T05:26:48;43.63;;;26.33;;
13309;SDS011;6723;48.256;16.402;2023-03-03T05:29:14;43.67;;;25.67;;
13309;SDS011;6723;48.256;16.402;2023-03-03T05:31:39;40.57;;;26.53;;
13309;SDS011;6723;48.256;16.402;2023-03-03T05:34:05;43.60;;;27.30;;
13309;SDS011;6723;48.256;16.402;2023-03-03T05:36:31;46.63;;;26.77;;
13309;SDS011;6723;48.256;16.402;2023-03-03T05:38:57;46.23;;;27.33;;
13309;SDS011;6723;48.256;16.402;2023-03-03T05:41:23;45.27;;;26.63;;
13309;SDS011;6723;48.256;16.402;2023-03-03T05:43:49;47.73;;;29.07;;
13309;SDS011;6723;48.256;16.402;2023-03-03T05:46:14;45.57;;;28.43;;
13309;SDS011;6723;48.256;16.402;2023-03-03T05:48:40;49.63;;;28.40;;
13309;SDS011;6723;48.256;16.402;2023-03-03T05:51:06;50.13;;;29.20;;
13309;SDS011;6723;48.256;16.402;2023-03-03T05:53:32;46.20;;;28.70;;
13309;SDS011;6723;48.256;16.402;2023-03-03T05:55:58;51.33;;;29.10;;
13309;SDS011;6723;48.256;16.402;2023-03-03T05:58:23;50.50;;;30.63;;
13309;SDS011;6723;48.256;16.402;2023-03-03T06:00:49;49.50;;;30.13;;
13309;SDS011;6723;48.256;16.402;2023-03-03T06:03:15;49.07;;;30.50;;
13309;SDS011;6723;48.256;16.402;2023-03-03T06:05:41;48.27;;;30.70;;
13309;SDS011;6723;48.256;16.402;2023-03-03T06:08:07;49.77;;;30.57;;
13309;SDS011;6723;48.256;16.402;2023-03-03T06:10:32;51.40;;;30.43;;
13309;SDS011;6723;48.256;16.402;2023-03-03T06:12:58;49.20;;;31.17;;
13309;SDS011;6723;48.256;16.402;2023-03-03T06:15:24;46.50;;;30.13;;
13309;SDS011;6723;48.256;16.402;2023-03-03T06:17:50;50.47;;;30.57;;
13309;SDS011;6723;48.256;16.402;2023-03-03T06:20:16;52.30;;;30.73;;
13309;SDS011;6723;48.256;16.402;2023-03-03T06:22:42;48.97;;;30.27;;
13309;SDS011;6723;48.256;16.402;2023-03-03T06:25:08;44.73;;;29.60;;
13309;SDS011;6723;48.256;16.402;2023-03-03T06:27:34;50.10;;;30.40;;
13309;SDS011;6723;48.256;16.402;2023-03-03T06:30:00;48.87;;;30.40;;
13309;SDS011;6723;48.256;16.402;2023-03-03T06:32:26;47.77;;;31.30;;
13309;SDS011;6723;48.256;16.402;2023-03-03T06:34:52;48.80;;;29.80;;
13309;SDS011;6723;48.256;16.402;2023-03-03T06:37:18;52.03;;;31.23;;
13309;SDS011;6723;48.256;16.402;2023-03-03T06:39:44;50.00;;;30.43;;
13309;SDS011;6723;48.256;16.402;2023-03-03T06:42:10;50.63;;;30.37;;
13309;SDS011;6723;48.256;16.402;2023-03-03T06:44:35;48.23;;;29.53;;
13309;SDS011;6723;48.256;16.402;2023-03-03T06:47:01;47.30;;;31.00;;
13309;SDS011;6723;48.256;16.402;2023-03-03T06:49:27;51.23;;;30.90;;
13309;SDS011;6723;48.256;16.402;2023-03-03T06:51:53;52.33;;;31.80;;
13309;SDS011;6723;48.256;16.402;2023-03-03T06:54:20;48.20;;;30.87;;
13309;SDS011;6723;48.256;16.402;2023-03-03T06:56:51;48.17;;;31.20;;
13309;SDS011;6723;48.256;16.402;2023-03-03T06:59:22;52.63;;;30.87;;
13309;SDS011;6723;48.256;16.402;2023-03-03T07:01:48;51.77;;;32.40;;
13309;SDS011;6723;48.256;16.402;2023-03-03T07:09:49;53.40;;;32.03;;
13309;SDS011;6723;48.256;16.402;2023-03-03T07:12:18;53.43;;;32.57;;
13309;SDS011;6723;48.256;16.402;2023-03-03T07:14:50;51.20;;;33.47;;
13309;SDS011;6723;48.256;16.402;2023-03-03T07:17:20;53.93;;;33.83;;
13309;SDS011;6723;48.256;16.402;2023-03-03T07:19:50;54.40;;;34.63;;
13309;SDS011;6723;48.256;16.402;2023-03-03T07:22:18;53.60;;;35.87;;
13309;SDS011;6723;48.256;16.402;2023-03-03T07:24:46;52.83;;;34.53;;
13309;SDS011;6723;48.256;16.402;2023-03-03T07:27:24;54.47;;;36.23;;
13309;SDS011;6723;48.256;16.402;2023-03-03T07:29:52;51.83;;;34.90;;
13309;SDS011;6723;48.256;16.402;2023-03-03T07:32:37;55.27;;;35.77;;
13309;SDS011;6723;48.256;16.402;2023-03-03T07:37:53;53.13;;;35.07;;
13309;SDS011;6723;48.256;16.402;2023-03-03T07:40:32;49.97;;;34.43;;
13309;SDS011;6723;48.256;16.402;2023-03-03T07:46:22;52.90;;;34.73;;
13309;SDS011;6723;48.256;16.402;2023-03-03T07:52:16;51.17;;;33.83;;
13309;SDS011;6723;48.256;16.402;2023-03-03T07:55:19;49.37;;;33.77;;
13309;SDS011;6723;48.256;16.402;2023-03-03T07:57:55;46.60;;;33.17;;
13309;SDS011;6723;48.256;16.402;2023-03-03T08:03:44;45.63;;;32.47;;
13309;SDS011;6723;48.256;16.402;2023-03-03T08:11:34;43.07;;;31.30;;
13309;SDS011;6723;48.256;16.402;2023-03-03T08:14:27;42.30;;;28.73;;
13309;SDS011;6723;48.256;16.402;2023-03-03T08:16:56;44.67;;;29.83;;
13309;SDS011;6723;48.256;16.402;2023-03-03T08:19:22;45.00;;;30.00;;
13309;SDS011;6723;48.256;16.402;2023-03-03T08:21:49;40.30;;;28.90;;
13309;SDS011;6723;48.256;16.402;2023-03-03T08:24:17;44.47;;;31.53;;
13309;SDS011;6723;48.256;16.402;2023-03-03T08:26:42;43.60;;;30.33;;
13309;SDS011;6723;48.256;16.402;2023-03-03T08:29:09;42.80;;;28.40;;
13309;SDS011;6723;48.256;16.402;2023-03-03T08:31:36;45.97;;;30.97;;
13309;SDS011;6723;48.256;16.402;2023-03-03T08:34:01;47.97;;;30.23;;
13309;SDS011;6723;48.256;16.402;2023-03-03T08:36:28;46.40;;;30.73;;
13309;SDS011;6723;48.256;16.402;2023-03-03T08:38:55;42.70;;;29.47;;
13309;SDS011;6723;48.256;16.402;2023-03-03T08:41:21;42.63;;;29.57;;
13309;SDS011;6723;48.256;16.402;2023-03-03T08:43:46;43.90;;;29.57;;
13309;SDS011;6723;48.256;16.402;2023-03-03T08:46:13;45.87;;;29.63;;
13309;SDS011;6723;48.256;16.402;2023-03-03T08:48:38;43.37;;;29.63;;
13309;SDS011;6723;48.256;16.402;2023-03-03T08:51:04;42.47;;;29.60;;
13309;SDS011;6723;48.256;16.402;2023-03-03T08:53:30;41.17;;;29.50;;
13309;SDS011;6723;48.256;16.402;2023-03-03T08:56:00;41.83;;;29.07;;
13309;SDS011;6723;48.256;16.402;2023-03-03T08:58:26;39.20;;;28.93;;
13309;SDS011;6723;48.256;16.402;2023-03-03T09:00:52;43.17;;;28.73;;
13309;SDS011;6723;48.256;16.402;2023-03-03T09:03:18;43.03;;;28.97;;
13309;SDS011;6723;48.256;16.402;2023-03-03T09:05:44;40.93;;;28.67;;
13309;SDS011;6723;48.256;16.402;2023-03-03T09:08:09;41.87;;;29.03;;
13309;SDS011;6723;48.256;16.402;2023-03-03T09:10:36;39.17;;;28.27;;
13309;SDS011;6723;48.256;16.402;2023-03-03T09:13:20;42.97;;;28.53;;
13309;SDS011;6723;48.256;16.402;2023-03-03T09:15:46;41.83;;;27.13;;
13309;SDS011;6723;48.256;16.402;2023-03-03T09:20:41;40.37;;;28.57;;
13309;SDS011;6723;48.256;16.402;2023-03-03T09:28:38;37.93;;;26.97;;
13309;SDS011;6723;48.256;16.402;2023-03-03T09:31:05;39.53;;;28.07;;
13309;SDS011;6723;48.256;16.402;2023-03-03T09:33:48;37.13;;;27.00;;
13309;SDS011;6723;48.256;16.402;2023-03-03T09:36:29;39.93;;;27.80;;
13309;SDS011;6723;48.256;16.402;2023-03-03T09:39:09;36.83;;;27.63;;
13309;SDS011;6723;48.256;16.402;2023-03-03T09:55:53;39.50;;;27.40;;
13309;SDS011;6723;48.256;16.402;2023-03-03T09:58:34;39.00;;;28.57;;
13309;SDS011;6723;48.256;16.402;2023-03-03T10:07:01;38.37;;;27.67;;
13309;SDS011;6723;48.256;16.402;2023-03-03T10:09:44;43.87;;;28.60;;
13309;SDS011;6723;48.256;16.402;2023-03-03T10:15:20;40.23;;;29.03;;
13309;SDS011;6723;48.256;16.402;2023-03-03T10:17:53;41.00;;;30.20;;
13309;SDS011;6723;48.256;16.402;2023-03-03T10:22:53;41.57;;;30.47;;
13309;SDS011;6723;48.256;16.402;2023-03-03T10:31:35;38.57;;;30.90;;
13309;SDS011;6723;48.256;16.402;2023-03-03T10:36:33;39.93;;;30.53;;
13309;SDS011;6723;48.256;16.402;2023-03-03T10:50:32;36.63;;;29.23;;
13309;SDS011;6723;48.256;16.402;2023-03-03T10:58:54;34.70;;;28.90;;
13309;SDS011;6723;48.256;16.402;2023-03-03T11:01:41;35.13;;;28.50;;
13309;SDS011;6723;48.256;16.402;2023-03-03T11:09:33;35.87;;;29.53;;
13309;SDS011;6723;48.256;16.402;2023-03-03T11:12:13;33.80;;;28.87;;
13309;SDS011;6723;48.256;16.402;2023-03-03T11:20:23;36.63;;;30.47;;
13309;SDS011;6723;48.256;16.402;2023-03-03T11:23:01;35.60;;;29.97;;
13309;SDS011;6723;48.256;16.402;2023-03-03T11:25:31;34.33;;;29.27;;
13309;SDS011;6723;48.256;16.402;2023-03-03T11:28:11;37.47;;;29.10;;
13309;SDS011;6723;48.256;16.402;2023-03-03T11:33:59;35.63;;;29.73;;
13309;SDS011;6723;48.256;16.402;2023-03-03T11:39:30;33.80;;;28.70;;
13309;SDS011;6723;48.256;16.402;2023-03-03T11:42:01;33.37;;;29.67;;
13309;SDS011;6723;48.256;16.402;2023-03-03T11:44:50;34.30;;;29.03;;
13309;SDS011;6723;48.256;16.402;2023-03-03T11:47:25;33.60;;;28.73;;
13309;SDS011;6723;48.256;16.402;2023-03-03T11:52:57;36.03;;;28.87;;
13309;SDS011;6723;48.256;16.402;2023-03-03T11:58:11;33.63;;;29.83;;
13309;SDS011;6723;48.256;16.402;2023-03-03T12:00:50;39.17;;;29.73;;
13309;SDS011;6723;48.256;16.402;2023-03-03T12:03:35;35.40;;;29.53;;
13309;SDS011;6723;48.256;16.402;2023-03-03T12:22:46;33.73;;;28.57;;
13309;SDS011;6723;48.256;16.402;2023-03-03T12:25:22;34.83;;;28.63;;
13309;SDS011;6723;48.256;16.402;2023-03-03T12:28:19;38.80;;;29.27;;
13309;SDS011;6723;48.256;16.402;2023-03-03T12:33:53;34.90;;;29.13;;
13309;SDS011;6723;48.256;16.402;2023-03-03T12:53:08;34.60;;;27.27;;
13309;SDS011;6723;48.256;16.402;2023-03-03T12:55:59;33.83;;;25.80;;
13309;SDS011;6723;48.256;16.402;2023-03-03T13:03:52;34.97;;;26.23;;
13309;SDS011;6723;48.256;16.402;2023-03-03T13:06:24;31.60;;;25.83;;
13309;SDS011;6723;48.256;16.402;2023-03-03T13:08:57;34.17;;;26.37;;
13309;SDS011;6723;48.256;16.402;2023-03-03T13:17:03;34.97;;;25.67;;
13309;SDS011;6723;48.256;16.402;2023-03-03T13:19:39;34.43;;;26.50;;
13309;SDS011;6723;48.256;16.402;2023-03-03T13:22:25;33.03;;;26.53;;
13309;SDS011;6723;48.256;16.402;2023-03-03T13:27:46;33.23;;;26.00;;
13309;SDS011;6723;48.256;16.402;2023-03-03T13:35:47;40.47;;;25.17;;
13309;SDS011;6723;48.256;16.402;2023-03-03T13:38:22;35.67;;;25.93;;
13309;SDS011;6723;48.256;16.402;2023-03-03T13:44:10;34.07;;;25.00;;
13309;SDS011;6723;48.256;16.402;2023-03-03T13:49:19;32.50;;;25.03;;
13309;SDS011;6723;48.256;16.402;2023-03-03T13:52:07;29.37;;;23.97;;
13309;SDS011;6723;48.256;16.402;2023-03-03T14:02:44;32.73;;;24.87;;
13309;SDS011;6723;48.256;16.402;2023-03-03T14:05:29;39.43;;;25.97;;
13309;SDS011;6723;48.256;16.402;2023-03-03T14:22:17;37.80;;;23.20;;
13309;SDS011;6723;48.256;16.402;2023-03-03T14:24:59;32.47;;;23.00;;
13309;SDS011;6723;48.256;16.402;2023-03-03T14:33:32;29.60;;;22.07;;
13309;SDS011;6723;48.256;16.402;2023-03-03T14:35:40;32.53;;;23.03;;
13309;SDS011;6723;48.256;16.402;2023-03-03T14:41:19;31.00;;;21.67;;
13309;SDS011;6723;48.256;16.402;2023-03-03T14:44:00;29.10;;;21.10;;
13309;SDS011;6723;48.256;16.402;2023-03-03T14:46:45;25.23;;;19.40;;
13309;SDS011;6723;48.256;16.402;2023-03-03T14:49:32;23.10;;;18.07;;
13309;SDS011;6723;48.256;16.402;2023-03-03T14:52:11;22.60;;;16.17;;
13309;SDS011;6723;48.256;16.402;2023-03-03T14:55:24;24.47;;;16.97;;
13309;SDS011;6723;48.256;16.402;2023-03-03T14:58:03;23.77;;;16.00;;
13309;SDS011;6723;48.256;16.402;2023-03-03T15:00:47;21.93;;;14.60;;
13309;SDS011;6723;48.256;16.402;2023-03-03T15:03:21;19.77;;;14.30;;
13309;SDS011;6723;48.256;16.402;2023-03-03T15:05:51;18.33;;;13.80;;
13309;SDS011;6723;48.256;16.402;2023-03-03T15:08:23;25.23;;;13.13;;
13309;SDS011;6723;48.256;16.402;2023-03-03T15:10:59;21.17;;;13.97;;
13309;SDS011;6723;48.256;16.402;2023-03-03T15:13:51;19.07;;;13.30;;
13309;SDS011;6723;48.256;16.402;2023-03-03T15:16:17;21.97;;;12.90;;
13309;SDS011;6723;48.256;16.402;2023-03-03T15:19:00;17.87;;;13.53;;
13309;SDS011;6723;48.256;16.402;2023-03-03T15:21:54;19.23;;;13.47;;
13309;SDS011;6723;48.256;16.402;2023-03-03T15:24:44;20.93;;;14.90;;
13309;SDS011;6723;48.256;16.402;2023-03-03T15:27:29;22.47;;;14.93;;
13309;SDS011;6723;48.256;16.402;2023-03-03T15:36:13;19.47;;;13.50;;
13309;SDS011;6723;48.256;16.402;2023-03-03T15:38:36;18.67;;;14.33;;
13309;SDS011;6723;48.256;16.402;2023-03-03T15:53:02;18.60;;;13.97;;
13309;SDS011;6723;48.256;16.402;2023-03-03T16:04:03;20.27;;;14.13;;
13309;SDS011;6723;48.256;16.402;2023-03-03T16:12:04;24.07;;;15.33;;
13309;SDS011;6723;48.256;16.402;2023-03-03T16:17:37;23.00;;;15.40;;
13309;SDS011;6723;48.256;16.402;2023-03-03T16:22:53;22.67;;;15.13;;
13309;SDS011;6723;48.256;16.402;2023-03-03T16:28:42;26.20;;;15.73;;
13309;SDS011;6723;48.256;16.402;2023-03-03T16:31:18;26.47;;;16.33;;
13309;SDS011;6723;48.256;16.402;2023-03-03T16:33:58;21.20;;;15.37;;
13309;SDS011;6723;48.256;16.402;2023-03-03T16:36:34;23.00;;;15.73;;
13309;SDS011;6723;48.256;16.402;2023-03-03T16:56:09;23.93;;;15.17;;
13309;SDS011;6723;48.256;16.402;2023-03-03T17:16:07;20.07;;;14.67;;
13309;SDS011;6723;48.256;16.402;2023-03-03T17:18:42;24.47;;;15.60;;
13309;SDS011;6723;48.256;16.402;2023-03-03T17:29:53;23.33;;;15.10;;
13309;SDS011;6723;48.256;16.402;2023-03-03T17:35:13;20.27;;;14.00;;
13309;SDS011;6723;48.256;16.402;2023-03-03T17:46:01;21.93;;;14.13;;
13309;SDS011;6723;48.256;16.402;2023-03-03T17:48:38;22.33;;;14.93;;
13309;SDS011;6723;48.256;16.402;2023-03-03T17:51:35;28.20;;;16.77;;
13309;SDS011;6723;48.256;16.402;2023-03-03T17:57:01;23.50;;;15.67;;
13309;SDS011;6723;48.256;16.402;2023-03-03T18:00:05;25.63;;;16.17;;
13309;SDS011;6723;48.256;16.402;2023-03-03T18:22:40;26.50;;;14.93;;
13309;SDS011;6723;48.256;16.402;2023-03-03T18:25:15;25.47;;;14.50;;
13309;SDS011;6723;48.256;16.402;2023-03-03T18:27:46;26.23;;;16.57;;
13309;SDS011;6723;48.256;16.402;2023-03-03T18:38:52;23.13;;;15.33;;
13309;SDS011;6723;48.256;16.402;2023-03-03T18:41:24;23.13;;;15.13;;
13309;SDS011;6723;48.256;16.402;2023-03-03T18:43:58;23.37;;;15.07;;
13309;SDS011;6723;48.256;16.402;2023-03-03T18:49:03;22.93;;;15.37;;
13309;SDS011;6723;48.256;16.402;2023-03-03T18:54:00;24.90;;;15.97;;
13309;SDS011;6723;48.256;16.402;2023-03-03T18:56:44;24.03;;;16.07;;
13309;SDS011;6723;48.256;16.402;2023-03-03T19:04:53;25.07;;;16.10;;
13309;SDS011;6723;48.256;16.402;2023-03-03T19:12:54;26.47;;;16.50;;
13309;SDS011;6723;48.256;16.402;2023-03-03T19:37:28;30.03;;;19.53;;
13309;SDS011;6723;48.256;16.402;2023-03-03T19:40:25;29.90;;;19.63;;
13309;SDS011;6723;48.256;16.402;2023-03-03T19:56:17;32.87;;;20.50;;
13309;SDS011;6723;48.256;16.402;2023-03-03T19:59:02;34.73;;;21.60;;
13309;SDS011;6723;48.256;16.402;2023-03-03T20:02:09;34.57;;;20.50;;
13309;SDS011;6723;48.256;16.402;2023-03-03T20:13:03;30.03;;;19.83;;
13309;SDS011;6723;48.256;16.402;2023-03-03T20:40:36;31.77;;;19.30;;
13309;SDS011;6723;48.256;16.402;2023-03-03T20:54:23;36.30;;;20.37;;
13309;SDS011;6723;48.256;16.402;2023-03-03T20:59:48;35.47;;;20.00;;
13309;SDS011;6723;48.256;16.402;2023-03-03T21:05:16;33.83;;;20.30;;
13309;SDS011;6723;48.256;16.402;2023-03-03T21:10:41;34.07;;;20.73;;
13309;SDS011;6723;48.256;16.402;2023-03-03T21:13:34;33.20;;;19.70;;
13309;SDS011;6723;48.256;16.402;2023-03-03T21:21:22;33.70;;;20.93;;
13309;SDS011;6723;48.256;16.402;2023-03-03T21:23:48;33.13;;;20.73;;
13309;SDS011;6723;48.256;16.402;2023-03-03T21:26:32;32.20;;;20.37;;
13309;SDS011;6723;48.256;16.402;2023-03-03T21:29:31;35.40;;;22.10;;
13309;SDS011;6723;48.256;16.402;2023-03-03T21:31:59;34.77;;;22.10;;
13309;SDS011;6723;48.256;16.402;2023-03-03T21:34:34;31.90;;;20.67;;
13309;SDS011;6723;48.256;16.402;2023-03-03T21:37:03;35.43;;;21.20;;
13309;SDS011;6723;48.256;16.402;2023-03-03T21:39:40;35.47;;;21.87;;
13309;SDS011;6723;48.256;16.402;2023-03-03T21:44:43;36.47;;;21.63;;
13309;SDS011;6723;48.256;16.402;2023-03-03T21:47:17;36.00;;;21.87;;
13309;SDS011;6723;48.256;16.402;2023-03-03T21:49:46;34.37;;;22.43;;
13309;SDS011;6723;48.256;16.402;2023-03-03T21:52:14;35.83;;;21.90;;
13309;SDS011;6723;48.256;16.402;2023-03-03T21:54:42;35.30;;;21.03;;
13309;SDS011;6723;48.256;16.402;2023-03-03T21:57:08;39.83;;;22.60;;
13309;SDS011;6723;48.256;16.402;2023-03-03T21:59:34;38.10;;;22.80;;
13309;SDS011;6723;48.256;16.402;2023-03-03T22:02:01;38.37;;;22.13;;
13309;SDS011;6723;48.256;16.402;2023-03-03T22:04:28;36.17;;;22.00;;
13309;SDS011;6723;48.256;16.402;2023-03-03T22:06:53;36.20;;;21.40;;
13309;SDS011;6723;48.256;16.402;2023-03-03T22:09:19;35.17;;;21.77;;
13309;SDS011;6723;48.256;16.402;2023-03-03T22:11:45;32.77;;;21.10;;